createdAt,value
2019-02-10T00:01:30.565Z,69.20
2019-02-10T00:03:59.772Z,69.30
2019-02-10T00:06:28.916Z,69.50
2019-02-10T00:08:58.122Z,69.70
2019-02-10T00:11:27.369Z,70.50
2019-02-10T00:13:57.641Z,71.00
2019-02-10T00:16:26.929Z,71.70
2019-02-10T00:18:56.339Z,72.30
2019-02-10T00:21:25.584Z,72.70
2019-02-10T00:23:54.728Z,72.80
2019-02-10T00:26:23.981Z,73.00
2019-02-10T00:28:53.120Z,73.10
2019-02-10T00:31:22.280Z,73.10
2019-02-10T00:33:51.542Z,73.30
2019-02-10T00:36:20.767Z,73.10
2019-02-10T00:38:49.931Z,73.20
2019-02-10T00:41:19.285Z,73.30
2019-02-10T00:43:48.438Z,74.00
2019-02-10T00:46:17.607Z,74.40
2019-02-10T00:48:46.756Z,74.80
2019-02-10T00:51:16.006Z,74.90
2019-02-10T00:53:45.164Z,75.20
2019-02-10T00:56:14.435Z,74.70
2019-02-10T00:58:43.588Z,74.70
2019-02-10T01:01:12.883Z,74.50
2019-02-10T01:03:42.031Z,73.80
2019-02-10T01:06:11.180Z,74.10
2019-02-10T01:08:40.340Z,74.40
2019-02-10T01:11:09.493Z,74.00
2019-02-10T01:13:39.068Z,74.80
2019-02-10T01:16:08.227Z,75.00
2019-02-10T01:18:37.680Z,75.10
2019-02-10T01:21:06.893Z,75.90
2019-02-10T01:23:36.036Z,74.90
2019-02-10T01:26:05.247Z,74.20
2019-02-10T01:28:34.407Z,74.20
2019-02-10T01:31:03.825Z,74.30
2019-02-10T01:33:32.985Z,73.40
2019-02-10T01:36:02.131Z,73.70
2019-02-10T01:38:31.263Z,73.60
2019-02-10T01:41:00.658Z,73.40
2019-02-10T01:43:29.854Z,74.20
2019-02-10T01:45:58.987Z,73.70
2019-02-10T01:48:28.332Z,74.10
2019-02-10T01:50:57.548Z,74.30
2019-02-10T01:53:26.695Z,74.30
2019-02-10T01:55:55.875Z,74.20
2019-02-10T01:58:25.093Z,74.50
2019-02-10T02:00:54.323Z,74.20
2019-02-10T02:03:23.460Z,74.50
2019-02-10T02:05:52.633Z,74.40
2019-02-10T02:08:21.773Z,74.10
2019-02-10T02:10:50.933Z,74.10
2019-02-10T02:13:20.059Z,74.10
2019-02-10T02:15:49.304Z,74.40
2019-02-10T02:18:18.445Z,75.10
2019-02-10T02:20:47.594Z,74.20
2019-02-10T02:23:16.888Z,74.00
2019-02-10T02:25:46.064Z,73.80
2019-02-10T02:28:15.201Z,74.00
2019-02-10T02:30:44.683Z,73.90
2019-02-10T02:33:13.824Z,73.90
2019-02-10T02:35:42.976Z,73.70
2019-02-10T02:38:12.120Z,73.60
2019-02-10T02:40:41.255Z,73.50
2019-02-10T02:43:10.415Z,73.60
2019-02-10T02:45:39.536Z,73.30
2019-02-10T02:48:08.684Z,73.40
2019-02-10T02:50:38.003Z,73.40
2019-02-10T02:53:07.148Z,73.40
2019-02-10T02:55:36.296Z,73.50
2019-02-10T02:58:05.446Z,73.60
2019-02-10T03:00:34.970Z,73.40
2019-02-10T03:03:04.133Z,73.50
2019-02-10T03:05:33.277Z,73.80
2019-02-10T03:08:02.518Z,73.80
2019-02-10T03:10:31.659Z,73.80
2019-02-10T03:13:00.996Z,73.90
2019-02-10T03:15:30.148Z,74.20
2019-02-10T03:17:59.309Z,73.80
2019-02-10T03:20:28.656Z,73.90
2019-02-10T03:22:57.831Z,73.90
2019-02-10T03:25:26.971Z,73.90
2019-02-10T03:27:56.148Z,73.90
2019-02-10T03:30:25.346Z,73.90
2019-02-10T03:32:54.523Z,73.80
2019-02-10T03:35:23.653Z,73.70
2019-02-10T03:37:52.802Z,74.00
2019-02-10T03:40:21.925Z,73.90
2019-02-10T03:42:51.269Z,73.50
2019-02-10T03:45:20.423Z,74.00
2019-02-10T03:47:49.547Z,74.00
2019-02-10T03:50:18.723Z,74.20
2019-02-10T03:52:47.878Z,74.50
2019-02-10T03:55:17.107Z,74.40
2019-02-10T03:57:46.252Z,74.60
2019-02-10T04:00:15.530Z,74.00
2019-02-10T04:02:44.676Z,73.00
2019-02-10T04:05:13.828Z,73.00
2019-02-10T04:07:43.188Z,73.30
2019-02-10T04:10:12.841Z,73.30
2019-02-10T04:12:41.967Z,73.40
2019-02-10T04:15:11.127Z,73.40
2019-02-10T04:17:40.315Z,73.60
2019-02-10T04:20:09.456Z,73.50
2019-02-10T04:22:38.599Z,73.50
2019-02-10T04:25:08.072Z,73.60
2019-02-10T04:27:37.207Z,73.60
2019-02-10T04:30:06.771Z,73.20
2019-02-10T04:32:35.908Z,73.60
2019-02-10T04:35:05.765Z,73.70
2019-02-10T04:37:34.884Z,74.30
2019-02-10T04:40:04.043Z,74.10
2019-02-10T04:42:33.178Z,75.00
2019-02-10T04:45:02.330Z,74.00
2019-02-10T04:47:31.486Z,74.40
2019-02-10T04:50:00.608Z,74.10
2019-02-10T04:52:29.755Z,73.40
2019-02-10T04:54:58.908Z,72.80
2019-02-10T04:57:28.087Z,73.00
2019-02-10T04:59:57.213Z,73.00
2019-02-10T05:02:26.542Z,72.90
2019-02-10T05:04:55.667Z,72.50
2019-02-10T05:07:24.806Z,71.90
2019-02-10T05:09:55.505Z,72.10
2019-02-10T05:12:24.659Z,72.20
2019-02-10T05:14:53.818Z,72.50
2019-02-10T05:17:22.959Z,73.10
2019-02-10T05:19:52.114Z,73.40
2019-02-10T05:22:21.251Z,73.40
2019-02-10T05:24:50.372Z,73.50
2019-02-10T05:27:19.514Z,73.40
2019-02-10T05:29:48.722Z,73.20
2019-02-10T05:32:17.880Z,73.30
2019-02-10T05:34:47.033Z,73.20
2019-02-10T05:37:16.161Z,73.30
2019-02-10T05:39:45.289Z,73.60
2019-02-10T05:42:14.457Z,73.90
2019-02-10T05:44:43.638Z,73.60
2019-02-10T05:47:12.796Z,73.40
2019-02-10T05:49:41.997Z,73.20
2019-02-10T05:52:11.133Z,73.10
2019-02-10T05:54:40.833Z,72.20
2019-02-10T05:57:10.219Z,71.30
2019-02-10T05:59:39.465Z,68.90
2019-02-10T06:02:25.273Z,68.00
2019-02-10T06:04:54.459Z,67.00
2019-02-10T06:07:23.583Z,66.40
2019-02-10T06:09:52.733Z,65.70
2019-02-10T06:12:21.868Z,65.30
2019-02-10T06:14:51.013Z,65.50
2019-02-10T06:17:20.149Z,65.10
2019-02-10T06:19:49.366Z,64.50
2019-02-10T06:22:18.488Z,64.10
2019-02-10T06:24:47.625Z,63.90
2019-02-10T06:27:16.750Z,63.60
2019-02-10T06:29:45.915Z,63.30
2019-02-10T06:32:15.041Z,63.10
2019-02-10T06:34:44.191Z,63.00
2019-02-10T06:37:13.368Z,62.80
2019-02-10T06:39:43.041Z,63.00
2019-02-10T06:42:12.173Z,62.70
2019-02-10T06:44:41.320Z,62.50
2019-02-10T06:47:10.488Z,62.60
2019-02-10T06:49:39.622Z,62.40
2019-02-10T06:52:08.758Z,62.40
2019-02-10T06:54:45.204Z,61.90
2019-02-10T06:57:14.496Z,61.50
2019-02-10T07:00:05.437Z,61.30
2019-02-10T07:03:15.331Z,61.20
2019-02-10T07:05:44.451Z,60.70
2019-02-10T07:08:13.600Z,60.20
2019-02-10T07:10:42.841Z,60.30
2019-02-10T07:13:14.527Z,60.20
2019-02-10T07:16:19.583Z,59.50
2019-02-10T07:19:24.289Z,59.60
2019-02-10T07:21:53.443Z,59.70
2019-02-10T07:24:44.384Z,59.80
2019-02-10T07:27:36.340Z,60.30
2019-02-10T07:30:40.725Z,60.60
2019-02-10T07:33:53.876Z,62.90
2019-02-10T07:36:34.952Z,64.30
2019-02-10T07:39:50.456Z,64.00
2019-02-10T07:42:58.511Z,64.00
2019-02-10T07:45:49.085Z,65.10
2019-02-10T07:48:31.683Z,65.30
2019-02-10T07:51:41.041Z,63.10
2019-02-10T07:54:42.248Z,60.80
2019-02-10T07:57:36.363Z,60.40
2019-02-10T08:00:51.938Z,59.90
2019-02-10T08:03:57.093Z,59.20
2019-02-10T08:07:04.794Z,57.90
2019-02-10T08:10:26.699Z,57.90
2019-02-10T08:13:22.815Z,57.80
2019-02-10T08:15:59.269Z,57.20
2019-02-10T08:19:01.518Z,57.30
2019-02-10T08:22:02.603Z,57.20
2019-02-10T08:25:22.097Z,57.60
2019-02-10T08:28:53.580Z,57.40
2019-02-10T08:31:50.297Z,57.00
2019-02-10T08:34:44.901Z,56.90
2019-02-10T08:38:02.602Z,56.90
2019-02-10T08:40:49.752Z,57.00
2019-02-10T08:43:51.057Z,55.40
2019-02-10T08:46:49.427Z,55.30
2019-02-10T08:50:05.696Z,55.30
2019-02-10T08:52:42.531Z,54.80
2019-02-10T08:55:11.802Z,55.10
2019-02-10T08:57:40.976Z,54.60
2019-02-10T09:00:11.228Z,54.70
2019-02-10T09:02:40.491Z,54.90
2019-02-10T09:05:09.851Z,54.40
2019-02-10T09:07:39.364Z,54.50
2019-02-10T09:10:10.501Z,54.30
2019-02-10T09:12:39.680Z,54.70
2019-02-10T09:15:10.017Z,54.40
2019-02-10T09:17:39.523Z,54.20
2019-02-10T09:20:09.513Z,54.00
2019-02-10T09:22:38.701Z,54.10
2019-02-10T09:25:08.868Z,53.90
2019-02-10T09:27:38.060Z,54.20
2019-02-10T09:30:08.333Z,54.20
2019-02-10T09:32:37.521Z,54.10
2019-02-10T09:35:07.477Z,54.10
2019-02-10T09:37:37.165Z,53.90
2019-02-10T09:40:25.404Z,54.00
2019-02-10T09:42:54.689Z,53.30
2019-02-10T09:45:23.853Z,53.70
2019-02-10T09:47:53.033Z,54.00
2019-02-10T09:50:22.316Z,53.40
2019-02-10T09:52:51.725Z,53.20
2019-02-10T09:55:21.257Z,53.40
2019-02-10T09:57:50.500Z,53.40
2019-02-10T10:00:19.701Z,52.90
2019-02-10T10:02:49.085Z,52.60
2019-02-10T10:05:19.618Z,53.00
2019-02-10T10:07:48.929Z,52.70
2019-02-10T10:10:18.110Z,52.50
2019-02-10T10:13:06.672Z,51.90
2019-02-10T10:15:35.851Z,51.40
2019-02-10T10:18:05.132Z,50.90
2019-02-10T10:20:34.323Z,50.60
2019-02-10T10:23:03.593Z,48.90
2019-02-10T10:25:32.897Z,48.20
2019-02-10T10:28:02.061Z,48.10
2019-02-10T10:30:31.412Z,47.70
2019-02-10T10:33:00.967Z,49.30
2019-02-10T10:35:30.228Z,48.20
2019-02-10T10:37:59.394Z,48.40
2019-02-10T10:40:30.543Z,49.20
2019-02-10T10:42:59.725Z,49.10
2019-02-10T10:45:29.118Z,49.60
2019-02-10T10:47:58.296Z,49.90
2019-02-10T10:50:27.512Z,50.20
2019-02-10T10:52:56.644Z,49.90
2019-02-10T10:55:25.914Z,49.50
2019-02-10T10:57:55.344Z,48.90
2019-02-10T11:00:24.601Z,48.90
2019-02-10T11:02:53.898Z,49.10
2019-02-10T11:05:23.245Z,49.40
2019-02-10T11:07:52.538Z,49.10
2019-02-10T11:10:21.854Z,48.80
2019-02-10T11:12:50.988Z,48.40
2019-02-10T11:15:21.404Z,48.00
2019-02-10T11:17:50.559Z,47.70
2019-02-10T11:20:19.884Z,47.50
2019-02-10T11:22:49.040Z,47.40
2019-02-10T11:25:19.808Z,48.10
2019-02-10T11:27:48.963Z,48.00
2019-02-10T11:30:18.168Z,47.90
2019-02-10T11:33:06.406Z,48.20
2019-02-10T11:35:35.608Z,48.20
2019-02-10T11:38:05.006Z,47.30
2019-02-10T11:40:34.204Z,44.60
2019-02-10T11:43:03.436Z,38.50
2019-02-10T11:45:32.681Z,37.70
2019-02-10T11:48:01.880Z,38.50
2019-02-10T11:50:31.131Z,40.00
2019-02-10T11:53:00.377Z,42.40
2019-02-10T11:55:29.540Z,42.70
2019-02-10T11:57:58.865Z,34.60
2019-02-10T12:00:28.056Z,29.10
2019-02-10T12:02:57.242Z,33.30
2019-02-10T12:05:26.484Z,36.50
2019-02-10T12:07:55.755Z,39.60
2019-02-10T12:10:25.328Z,41.50
2019-02-10T12:12:54.655Z,42.90
2019-02-10T12:15:23.821Z,43.50
2019-02-10T12:17:52.980Z,43.10
2019-02-10T12:20:22.213Z,44.10
2019-02-10T12:22:51.641Z,43.60
2019-02-10T12:25:20.773Z,43.60
2019-02-10T12:27:50.028Z,43.20
2019-02-10T12:30:19.286Z,43.60
2019-02-10T12:32:48.471Z,43.40
2019-02-10T12:35:17.619Z,43.60
2019-02-10T12:37:46.781Z,43.70
2019-02-10T12:40:16.137Z,43.60
2019-02-10T12:42:45.297Z,44.00
2019-02-10T12:45:14.721Z,43.90
2019-02-10T12:47:44.016Z,43.90
2019-02-10T12:50:13.401Z,44.50
2019-02-10T12:52:42.658Z,44.10
2019-02-10T12:55:11.873Z,44.20
2019-02-10T12:57:41.132Z,44.30
2019-02-10T13:00:13.432Z,44.80
2019-02-10T13:02:42.776Z,45.50
2019-02-10T13:05:12.470Z,45.40
2019-02-10T13:07:41.657Z,45.60
2019-02-10T13:10:13.066Z,46.00
2019-02-10T13:12:42.315Z,46.60
2019-02-10T13:15:11.585Z,47.00
2019-02-10T13:17:40.834Z,47.20
2019-02-10T13:20:10.224Z,47.60
2019-02-10T13:22:39.630Z,49.90
2019-02-10T13:25:08.864Z,53.70
2019-02-10T13:27:38.323Z,54.80
2019-02-10T13:30:08.789Z,56.80
2019-02-10T13:32:37.985Z,57.60
2019-02-10T13:35:07.383Z,59.00
2019-02-10T13:37:36.582Z,59.70
2019-02-10T13:40:16.258Z,60.00
2019-02-10T13:42:39.536Z,61.00
2019-02-10T13:45:09.392Z,61.70
2019-02-10T13:47:38.657Z,61.90
2019-02-10T13:50:09.584Z,62.20
2019-02-10T13:52:38.842Z,62.20
2019-02-10T13:55:09.284Z,63.30
2019-02-10T13:57:38.714Z,63.50
2019-02-10T14:00:11.477Z,65.40
2019-02-10T14:02:40.852Z,66.10
2019-02-10T14:05:10.641Z,65.60
2019-02-10T14:07:39.927Z,65.80
2019-02-10T14:10:11.157Z,66.10
2019-02-10T14:12:40.752Z,67.00
2019-02-10T14:15:12.064Z,66.90
2019-02-10T14:17:41.262Z,67.30
2019-02-10T14:20:12.795Z,68.40
2019-02-10T14:22:42.000Z,69.60
2019-02-10T14:25:11.177Z,69.70
2019-02-10T14:27:40.382Z,69.80
2019-02-10T14:30:11.232Z,69.60
2019-02-10T14:32:40.496Z,69.40
2019-02-10T14:35:09.704Z,69.30
2019-02-10T14:37:38.967Z,69.50
2019-02-10T14:40:08.508Z,69.60
2019-02-10T14:42:37.749Z,70.40
2019-02-10T14:45:07.604Z,70.30
2019-02-10T14:47:36.819Z,70.60
2019-02-10T14:50:07.564Z,71.40
2019-02-10T14:52:36.828Z,70.20
2019-02-10T14:55:06.373Z,71.40
2019-02-10T14:57:35.635Z,72.10
2019-02-10T15:00:06.120Z,71.90
2019-02-10T15:02:35.325Z,72.20
2019-02-10T15:05:06.258Z,72.00
2019-02-10T15:07:35.599Z,72.60
2019-02-10T15:10:05.802Z,74.20
2019-02-10T15:12:34.972Z,73.20
2019-02-10T15:15:04.590Z,73.00
2019-02-10T15:17:33.945Z,72.20
2019-02-10T15:20:03.197Z,71.90
2019-02-10T15:22:32.371Z,72.50
2019-02-10T15:25:01.778Z,71.60
2019-02-10T15:27:31.261Z,71.40
2019-02-10T15:30:00.495Z,71.10
2019-02-10T15:32:29.643Z,71.80
2019-02-10T15:34:59.157Z,70.80
2019-02-10T15:37:28.681Z,71.00
2019-02-10T15:39:58.428Z,71.30
2019-02-10T15:42:27.878Z,70.40
2019-02-10T15:44:57.207Z,71.90
2019-02-10T15:47:26.386Z,72.60
2019-02-10T15:49:55.738Z,73.90
2019-02-10T15:52:24.947Z,74.00
2019-02-10T15:54:54.116Z,74.80
2019-02-10T15:57:23.576Z,74.60
2019-02-10T15:59:53.440Z,74.90
2019-02-10T16:02:22.683Z,76.60
2019-02-10T16:04:52.947Z,77.70
2019-02-10T16:07:22.176Z,78.30
2019-02-10T16:09:51.444Z,78.80
2019-02-10T16:12:20.794Z,79.00
2019-02-10T16:14:49.960Z,78.10
2019-02-10T16:17:19.873Z,78.40
2019-02-10T16:19:49.048Z,77.80
2019-02-10T16:22:18.837Z,78.10
2019-02-10T16:24:48.157Z,77.80
2019-02-10T16:27:17.401Z,78.20
2019-02-10T16:29:46.775Z,78.70
2019-02-10T16:32:16.228Z,78.80
2019-02-10T16:34:45.365Z,78.90
2019-02-10T16:37:14.987Z,79.40
2019-02-10T16:39:44.184Z,79.70
2019-02-10T16:42:13.921Z,79.10
2019-02-10T16:44:43.232Z,79.00
2019-02-10T16:47:12.787Z,79.00
2019-02-10T16:49:42.127Z,79.60
2019-02-10T16:52:11.324Z,79.80
2019-02-10T16:54:40.465Z,79.60
2019-02-10T16:57:09.826Z,79.70
2019-02-10T16:59:38.995Z,80.00
2019-02-10T17:02:08.377Z,79.30
2019-02-10T17:04:37.596Z,79.20
2019-02-10T17:07:06.814Z,79.10
2019-02-10T17:09:36.081Z,78.40
2019-02-10T17:12:05.339Z,79.20
2019-02-10T17:14:34.621Z,80.20
2019-02-10T17:17:03.882Z,80.90
2019-02-10T17:19:33.060Z,80.50
2019-02-10T17:22:02.529Z,78.90
2019-02-10T17:24:31.896Z,78.50
2019-02-10T17:27:01.150Z,78.40
2019-02-10T17:29:31.391Z,77.70
2019-02-10T17:32:01.023Z,78.20
2019-02-10T17:34:30.418Z,78.30
2019-02-10T17:36:59.736Z,79.00
2019-02-10T17:39:28.925Z,79.60
2019-02-10T17:41:58.187Z,81.30
2019-02-10T17:44:27.519Z,81.60
2019-02-10T17:46:56.945Z,81.10
2019-02-10T17:49:26.153Z,80.20
2019-02-10T17:51:55.343Z,80.30
2019-02-10T17:54:24.750Z,81.80
2019-02-10T17:56:54.416Z,82.20
2019-02-10T17:59:29.949Z,80.50
2019-02-10T18:01:59.251Z,82.30
2019-02-10T18:04:28.799Z,82.20
2019-02-10T18:06:58.113Z,81.50
2019-02-10T18:09:27.322Z,80.40
2019-02-10T18:11:56.641Z,81.30
2019-02-10T18:15:01.496Z,80.20
2019-02-10T18:17:51.503Z,78.90
2019-02-10T18:20:30.527Z,77.70
2019-02-10T18:23:14.232Z,76.60
2019-02-10T18:26:02.298Z,77.40
2019-02-10T18:28:49.304Z,76.90
2019-02-10T18:31:36.660Z,78.00
2019-02-10T18:34:25.598Z,77.80
2019-02-10T18:37:19.646Z,77.50
2019-02-10T18:39:56.371Z,77.30
2019-02-10T18:42:42.620Z,77.50
2019-02-10T18:45:22.501Z,78.00
2019-02-10T18:48:13.816Z,76.10
2019-02-10T18:51:04.962Z,76.00
2019-02-10T18:53:51.748Z,74.90
2019-02-10T18:56:38.913Z,74.60
2019-02-10T18:59:21.994Z,74.50
2019-02-10T19:02:18.649Z,74.60
2019-02-10T19:05:06.932Z,74.70
2019-02-10T19:07:54.195Z,74.00
2019-02-10T19:10:45.385Z,73.00
2019-02-10T19:13:33.909Z,73.70
2019-02-10T19:16:11.781Z,74.80
2019-02-10T19:19:00.031Z,73.80
2019-02-10T19:21:47.139Z,74.10
2019-02-10T19:24:41.465Z,73.60
2019-02-10T19:27:39.062Z,73.80
2019-02-10T19:30:40.948Z,73.00
2019-02-10T19:33:44.388Z,73.10
2019-02-10T19:36:31.474Z,74.00
2019-02-10T19:39:38.337Z,73.30
2019-02-10T19:42:19.585Z,73.00
2019-02-10T19:45:16.659Z,71.80
2019-02-10T19:48:23.001Z,71.70
2019-02-10T19:51:10.708Z,71.90
2019-02-10T19:53:53.397Z,69.60
2019-02-10T19:56:34.861Z,69.20
2019-02-10T19:59:21.963Z,68.80
2019-02-10T20:02:00.957Z,68.10
2019-02-10T20:04:49.127Z,68.30
2019-02-10T20:07:29.417Z,68.50
2019-02-10T20:10:23.653Z,68.30
2019-02-10T20:13:10.819Z,68.80
2019-02-10T20:16:03.720Z,69.10
2019-02-10T20:18:51.909Z,69.30
2019-02-10T20:21:28.707Z,69.70
2019-02-10T20:24:08.710Z,69.70
2019-02-10T20:26:51.354Z,69.70
2019-02-10T20:29:54.963Z,69.10
2019-02-10T20:32:31.527Z,69.40
2019-02-10T20:35:35.350Z,69.60
2019-02-10T20:38:20.777Z,69.10
2019-02-10T20:40:55.847Z,68.60
2019-02-10T20:43:52.848Z,69.20
2019-02-10T20:46:59.244Z,68.90
2019-02-10T20:49:34.253Z,69.60
2019-02-10T20:52:23.554Z,69.90
2019-02-10T20:55:17.525Z,70.00
2019-02-10T20:58:11.661Z,70.50
2019-02-10T21:00:58.569Z,70.40
2019-02-10T21:03:57.599Z,70.90
2019-02-10T21:06:39.552Z,71.80
2019-02-10T21:09:27.508Z,73.10
2019-02-10T21:12:06.092Z,73.70
2019-02-10T21:15:00.307Z,74.20
2019-02-10T21:17:48.526Z,74.10
2019-02-10T21:20:36.714Z,74.60
2019-02-10T21:23:23.641Z,75.70
2019-02-10T21:26:02.211Z,77.40
2019-02-10T21:28:54.277Z,77.60
2019-02-10T21:32:01.879Z,77.40
2019-02-10T21:34:52.928Z,78.20
2019-02-10T21:37:48.985Z,78.60
2019-02-10T21:40:30.429Z,78.50
2019-02-10T21:43:11.432Z,78.70
2019-02-10T21:45:52.400Z,78.70
2019-02-10T21:48:25.368Z,78.40
2019-02-10T21:50:54.539Z,79.00
2019-02-10T21:53:23.913Z,78.70
2019-02-10T21:55:53.444Z,79.00
2019-02-10T21:58:22.692Z,78.10
2019-02-10T22:00:51.838Z,78.50
2019-02-10T22:03:20.977Z,78.40
2019-02-10T22:05:50.144Z,78.70
2019-02-10T22:08:19.398Z,77.90
2019-02-10T22:10:48.696Z,77.70
2019-02-10T22:13:18.006Z,78.00
2019-02-10T22:15:47.228Z,78.00
2019-02-10T22:18:16.433Z,78.20
2019-02-10T22:20:45.727Z,77.80
2019-02-10T22:23:14.973Z,77.70
2019-02-10T22:25:44.143Z,77.20
2019-02-10T22:28:13.283Z,77.40
2019-02-10T22:30:42.464Z,77.00
2019-02-10T22:33:11.792Z,76.80
2019-02-10T22:35:41.017Z,77.20
2019-02-10T22:38:10.231Z,76.60
2019-02-10T22:40:39.401Z,77.30
2019-02-10T22:43:08.562Z,77.20
2019-02-10T22:45:37.691Z,77.30
2019-02-10T22:48:06.937Z,77.40
2019-02-10T22:50:55.165Z,77.10
2019-02-10T22:53:24.327Z,77.40
2019-02-10T22:55:53.589Z,76.90
2019-02-10T22:58:22.764Z,76.40
2019-02-10T23:00:59.507Z,77.10
2019-02-10T23:03:28.672Z,77.20
2019-02-10T23:05:57.812Z,77.30
2019-02-10T23:08:26.981Z,77.30
2019-02-10T23:10:56.836Z,77.50
2019-02-10T23:13:25.997Z,78.00
2019-02-10T23:15:55.134Z,78.40
2019-02-10T23:18:24.659Z,78.50
2019-02-10T23:20:53.797Z,79.10
2019-02-10T23:23:23.069Z,78.80
2019-02-10T23:25:52.280Z,78.80
2019-02-10T23:28:21.451Z,79.10
2019-02-10T23:30:50.713Z,78.20
2019-02-10T23:33:19.861Z,79.00
2019-02-10T23:35:48.990Z,79.10
2019-02-10T23:38:18.232Z,79.40
2019-02-10T23:40:47.400Z,79.90
2019-02-10T23:43:16.552Z,80.30
2019-02-10T23:45:45.760Z,79.90
2019-02-10T23:48:14.904Z,79.80
2019-02-10T23:50:44.107Z,79.70
2019-02-10T23:53:13.244Z,79.90
2019-02-10T23:55:42.395Z,80.20
2019-02-10T23:58:11.690Z,78.60
